Time;durP1;ratioP1;P1;durP2;ratioP2;P2;SDS_P1;SDS_P2;PMS_P1;PMS_P2;Temp;Humidity;BMP_temperature;BMP_pressure;BME280_temperature;BME280_humidity;BME280_pressure;Samples;Min_cycle;Max_cycle;Signal;HPM_P1;HPM_P2
2024/02/27 00:01:42;;;;;;;22.40;12.10;;;;;;;4.02;100.00;97957.47;6109705;19;20013;-71
2024/02/27 00:03:42;;;;;;;20.10;12.50;;;;;;;4.01;100.00;97956.66;6110250;19;20018;-71
2024/02/27 00:05:43;;;;;;;22.33;12.68;;;;;;;4.05;100.00;97959.50;6109316;19;20014;-71
2024/02/27 00:07:43;;;;;;;21.23;12.80;;;;;;;4.05;100.00;97964.97;6110373;19;20027;-71
2024/02/27 00:09:44;;;;;;;18.50;11.50;;;;;;;4.06;100.00;97969.31;6109068;19;20312;-71
2024/02/27 00:11:45;;;;;;;20.15;11.32;;;;;;;4.08;100.00;97967.81;6109209;19;20056;-71
2024/02/27 00:13:45;;;;;;;17.63;11.05;;;;;;;4.14;100.00;97971.91;6108256;19;20499;-71
2024/02/27 00:15:46;;;;;;;18.65;11.27;;;;;;;4.19;100.00;97968.13;6103464;19;20003;-71
2024/02/27 00:17:46;;;;;;;20.48;11.25;;;;;;;4.19;100.00;97974.38;6102647;19;20011;-71
2024/02/27 00:19:46;;;;;;;19.48;10.65;;;;;;;4.20;100.00;97975.97;6101749;19;20003;-71
2024/02/27 00:21:47;;;;;;;20.20;11.35;;;;;;;4.19;100.00;97979.06;6102445;19;20256;-71
2024/02/27 00:23:47;;;;;;;19.45;11.27;;;;;;;4.22;100.00;97986.59;6102726;19;20350;-71
2024/02/27 00:25:47;;;;;;;17.63;10.68;;;;;;;4.20;100.00;97981.44;6101463;19;20502;-71
2024/02/27 00:27:49;;;;;;;18.58;10.45;;;;;;;4.24;100.00;97984.31;6102710;19;20487;-71
2024/02/27 00:29:50;;;;;;;20.17;11.10;;;;;;;4.23;100.00;97988.19;6101515;19;20014;-71
2024/02/27 00:31:50;;;;;;;21.95;11.10;;;;;;;4.22;100.00;97981.94;6102206;19;20418;-71
2024/02/27 00:33:50;;;;;;;16.50;10.38;;;;;;;4.28;100.00;97976.97;6102558;19;20266;-71
2024/02/27 00:35:51;;;;;;;17.88;11.32;;;;;;;4.30;100.00;97976.63;6101472;19;20010;-71
2024/02/27 00:37:51;;;;;;;20.50;11.20;;;;;;;4.29;100.00;97967.63;6102057;19;20355;-71
2024/02/27 00:39:52;;;;;;;17.10;10.52;;;;;;;4.29;100.00;97967.63;6100408;19;20030;-71
2024/02/27 00:41:57;;;;;;;19.05;10.07;;;;;;;4.30;100.00;97966.47;6102708;19;20017;-71
2024/02/27 00:43:57;;;;;;;17.67;10.77;;;;;;;4.30;100.00;97971.16;6103792;19;20184;-71
2024/02/27 00:45:57;;;;;;;16.73;9.98;;;;;;;4.28;100.00;97982.44;6101834;19;20263;-71
2024/02/27 00:47:58;;;;;;;14.38;9.82;;;;;;;4.28;100.00;97982.44;6102473;19;20003;-71
2024/02/27 00:49:58;;;;;;;19.33;10.85;;;;;;;4.29;100.00;97980.50;6101656;19;20003;-71
2024/02/27 00:51:58;;;;;;;19.60;10.32;;;;;;;4.33;100.00;97979.47;6102230;19;20003;-71
2024/02/27 00:53:59;;;;;;;19.20;10.25;;;;;;;4.32;100.00;97972.41;6102475;19;20006;-71
2024/02/27 00:55:59;;;;;;;17.23;9.98;;;;;;;4.35;100.00;97979.13;6102128;19;20006;-71
2024/02/27 00:57:59;;;;;;;15.68;9.50;;;;;;;4.35;100.00;97977.19;6102810;19;20015;-71
2024/02/27 01:00:08;;;;;;;19.33;10.40;;;;;;;4.35;100.00;97965.44;6101954;19;20030;-71
2024/02/27 01:02:08;;;;;;;18.00;9.68;;;;;;;4.36;100.00;97962.34;6100578;19;20003;-70
2024/02/27 01:04:09;;;;;;;16.50;9.82;;;;;;;4.31;100.00;97962.59;6103886;19;20176;-70
2024/02/27 01:06:09;;;;;;;18.15;10.18;;;;;;;4.32;100.00;97960.66;6102626;19;20014;-71
2024/02/27 01:08:09;;;;;;;17.17;9.65;;;;;;;4.30;100.00;97963.72;6103500;19;20022;-71
2024/02/27 01:10:10;;;;;;;16.80;9.80;;;;;;;4.27;100.00;97972.66;6101172;19;20034;-71
2024/02/27 01:12:10;;;;;;;15.55;10.13;;;;;;;4.24;100.00;97981.56;6103016;19;20006;-71
2024/02/27 01:14:11;;;;;;;14.45;9.88;;;;;;;4.23;100.00;97983.50;6101387;19;20571;-71
2024/02/27 01:16:11;;;;;;;15.52;9.32;;;;;;;4.23;100.00;97983.50;6109235;19;19999;-71
2024/02/27 01:18:11;;;;;;;16.60;9.18;;;;;;;4.23;100.00;97985.47;6109440;19;20003;-71
2024/02/27 01:20:12;;;;;;;15.27;9.70;;;;;;;4.22;100.00;97995.63;6108987;19;20109;-71
2024/02/27 01:22:12;;;;;;;14.65;9.10;;;;;;;4.20;100.00;97981.44;6108813;19;20011;-71
2024/02/27 01:24:12;;;;;;;16.55;9.88;;;;;;;4.18;100.00;97988.44;6108606;19;20042;-71
2024/02/27 01:26:13;;;;;;;17.10;9.27;;;;;;;4.19;100.00;97995.50;6109901;19;20007;-71
2024/02/27 01:28:13;;;;;;;13.82;8.63;;;;;;;4.16;100.00;97985.25;6108800;19;20447;-71
2024/02/27 01:30:14;;;;;;;13.57;8.73;;;;;;;4.19;100.00;97992.75;6107360;19;20455;-71
2024/02/27 01:32:14;;;;;;;16.58;10.43;;;;;;;4.18;100.00;97988.44;6109209;19;20006;-71
2024/02/27 01:34:14;;;;;;;13.85;9.38;;;;;;;4.18;100.00;97991.97;6109190;19;20002;-70
2024/02/27 01:36:15;;;;;;;17.58;9.30;;;;;;;4.14;100.00;97984.81;6108868;19;20030;-70
2024/02/27 01:38:15;;;;;;;18.13;9.85;;;;;;;4.15;100.00;98000.09;6109495;19;20011;-71
2024/02/27 01:40:15;;;;;;;16.73;9.32;;;;;;;4.15;100.00;98000.88;6107386;19;19999;-71
2024/02/27 01:42:16;;;;;;;14.75;8.80;;;;;;;4.15;100.00;98000.88;6107540;19;20007;-71
2024/02/27 01:44:16;;;;;;;15.77;9.75;;;;;;;4.18;100.00;98011.13;6106539;19;20626;-70
2024/02/27 01:46:19;;;;;;;15.38;9.32;;;;;;;4.22;100.00;98008.50;6109082;19;20323;-71
2024/02/27 01:48:19;;;;;;;;;;;;;;;4.22;100.00;98012.06;6109381;19;19999;-71
2024/02/27 01:50:22;;;;;;;12.15;8.38;;;;;;;4.14;100.00;98009.44;6107870;19;19928;-71
2024/02/27 01:52:22;;;;;;;;;;;;;;;4.15;100.00;98011.03;6108075;19;20005;-71
2024/02/27 01:54:24;;;;;;;17.67;8.18;;;;;;;4.11;100.00;98010.13;6109467;19;19911;-71
2024/02/27 01:56:25;;;;;;;;;;;;;;;4.11;100.00;98013.66;6107865;19;20007;-71
2024/02/27 01:58:26;;;;;;;16.25;8.00;;;;;;;4.13;100.00;98005.09;6109215;19;19932;-71
2024/02/27 02:00:27;;;;;;;12.35;7.68;;;;;;;4.13;100.00;98003.16;6107682;19;20014;-70
2024/02/27 02:02:34;;;;;;;17.55;8.02;;;;;;;4.09;100.00;98010.47;6108777;19;20009;-70
2024/02/27 02:04:35;;;;;;;14.38;7.88;;;;;;;4.08;100.00;97997.94;6108512;19;20323;-70
2024/02/27 02:06:35;;;;;;;12.77;7.65;;;;;;;4.14;100.00;98003.97;6107878;19;20112;-70
2024/02/27 02:08:37;;;;;;;11.27;7.53;;;;;;;4.10;100.00;98005.81;6108143;19;20010;-70
2024/02/27 02:10:38;;;;;;;14.70;8.05;;;;;;;4.07;100.00;98006.50;6107042;19;20495;-71
2024/02/27 02:12:38;;;;;;;13.15;7.43;;;;;;;4.07;100.00;98022.94;6107841;19;19999;-71
2024/02/27 02:14:40;;;;;;;12.63;7.40;;;;;;;4.08;100.00;98019.03;6106940;19;20051;-70
2024/02/27 02:16:41;;;;;;;13.40;8.32;;;;;;;4.05;100.00;98017.78;6108354;19;20114;-70
2024/02/27 02:18:41;;;;;;;12.75;7.15;;;;;;;4.12;100.00;98028.16;6108040;19;20011;-70
2024/02/27 02:20:41;;;;;;;15.95;7.88;;;;;;;4.09;100.00;98023.38;6106024;19;20003;-70
2024/02/27 02:22:42;;;;;;;12.55;7.55;;;;;;;4.04;100.00;98029.06;6107654;19;20019;-70
2024/02/27 02:24:42;;;;;;;11.85;7.38;;;;;;;4.00;100.00;98012.56;6108326;19;20003;-70
2024/02/27 02:26:43;;;;;;;12.88;7.93;;;;;;;4.00;100.00;98015.28;6108280;19;20345;-70
2024/02/27 02:28:43;;;;;;;11.77;7.70;;;;;;;4.02;100.00;98023.16;6107172;19;20003;-71
2024/02/27 02:30:44;;;;;;;11.07;6.68;;;;;;;3.97;100.00;98026.13;6107212;19;20007;-71
2024/02/27 02:32:51;;;;;;;11.40;6.95;;;;;;;4.01;100.00;98029.78;6107773;19;20083;-70
2024/02/27 02:34:51;;;;;;;9.48;5.88;;;;;;;3.99;100.00;98030.13;6107228;19;20011;-70
2024/02/27 02:36:51;;;;;;;9.18;5.82;;;;;;;4.01;100.00;98044.25;6106895;19;20251;-70
2024/02/27 02:38:52;;;;;;;9.30;6.47;;;;;;;4.00;100.00;98044.63;6107597;19;20353;-70
2024/02/27 02:40:52;;;;;;;11.10;6.57;;;;;;;3.97;100.00;98037.06;6106404;19;20358;-70
2024/02/27 02:42:52;;;;;;;8.95;6.28;;;;;;;3.94;100.00;98033.09;6106872;19;20547;-70
2024/02/27 02:44:53;;;;;;;9.93;6.07;;;;;;;3.93;100.00;98039.72;6107313;19;20590;-70
2024/02/27 02:46:53;;;;;;;10.88;6.80;;;;;;;3.93;100.00;98045.19;6106741;19;20007;-70
2024/02/27 02:48:54;;;;;;;10.30;6.43;;;;;;;3.93;100.00;98047.94;6106515;19;20337;-70
2024/02/27 02:50:54;;;;;;;8.68;6.40;;;;;;;3.91;100.00;98042.81;6105717;19;20459;-70
2024/02/27 02:52:58;;;;;;;9.25;6.68;;;;;;;3.89;100.00;98045.09;6106994;19;20006;-70
2024/02/27 02:55:01;;;;;;;9.38;6.60;;;;;;;3.97;100.00;98048.03;6107466;19;20078;-70
2024/02/27 02:57:02;;;;;;;11.63;7.07;;;;;;;3.90;100.00;98043.94;6107139;19;20007;-70
2024/02/27 02:59:02;;;;;;;12.45;6.90;;;;;;;3.84;100.00;98044.53;6107125;19;20002;-70
2024/02/27 03:01:03;;;;;;;10.30;6.82;;;;;;;3.84;100.00;98048.06;6105377;19;20003;-70
2024/02/27 03:03:03;;;;;;;10.60;6.35;;;;;;;3.84;100.00;98050.00;6106678;19;20961;-70
2024/02/27 03:05:05;;;;;;;9.07;6.00;;;;;;;3.84;100.00;98050.00;6106844;19;20007;-70
2024/02/27 03:07:06;;;;;;;11.13;6.72;;;;;;;3.81;100.00;98047.94;6106486;19;20002;-70
2024/02/27 03:09:08;;;;;;;9.75;5.65;;;;;;;3.80;100.00;98049.06;6107286;19;19999;-70
2024/02/27 03:11:08;;;;;;;8.55;6.10;;;;;;;3.85;100.00;98051.59;6104969;19;20074;-70
2024/02/27 03:13:08;;;;;;;8.48;5.63;;;;;;;3.84;100.00;98055.47;6105882;19;20019;-70
2024/02/27 03:15:09;;;;;;;8.63;5.70;;;;;;;3.81;100.00;98056.97;6107212;19;20323;-70
2024/02/27 03:17:09;;;;;;;8.82;6.15;;;;;;;3.82;100.00;98053.06;6106020;19;20007;-70
2024/02/27 03:19:10;;;;;;;10.57;6.53;;;;;;;3.76;100.00;98048.19;6106137;19;20003;-70
2024/02/27 03:21:11;;;;;;;11.23;6.22;;;;;;;3.71;100.00;98051.94;6103171;19;20382;-70
2024/02/27 03:23:11;;;;;;;9.05;5.90;;;;;;;3.68;100.00;98060.84;6105448;19;20964;-70
2024/02/27 03:25:11;;;;;;;9.45;6.10;;;;;;;3.69;100.00;98062.44;6109654;19;19999;-70
2024/02/27 03:27:12;;;;;;;9.43;5.85;;;;;;;3.67;100.00;98054.56;6111217;19;20009;-70
2024/02/27 03:29:13;;;;;;;9.20;6.25;;;;;;;3.73;100.00;98051.63;6111027;19;20365;-70
2024/02/27 03:31:14;;;;;;;8.98;5.85;;;;;;;3.69;100.00;98046.00;6109496;19;20082;-70
2024/02/27 03:33:14;;;;;;;11.82;6.03;;;;;;;3.70;100.00;98049.53;6110754;19;20003;-70
2024/02/27 03:35:14;;;;;;;8.43;5.40;;;;;;;3.65;100.00;98043.16;6110231;19;20006;-70
2024/02/27 03:37:15;;;;;;;7.82;5.55;;;;;;;3.64;100.00;98048.97;6110619;19;20025;-70
2024/02/27 03:39:16;;;;;;;8.15;5.55;;;;;;;3.62;100.00;98051.25;6112720;19;20466;-70
2024/02/27 03:41:18;;;;;;;9.30;5.68;;;;;;;3.60;100.00;98051.59;6109449;19;20007;-70
2024/02/27 03:43:18;;;;;;;7.75;5.10;;;;;;;3.68;100.00;98049.88;6112458;19;20420;-71
2024/02/27 03:45:18;;;;;;;7.63;5.00;;;;;;;3.65;100.00;98043.16;6110759;19;20011;-70
2024/02/27 03:47:19;;;;;;;9.85;5.00;;;;;;;3.62;100.00;98045.78;6111526;19;20003;-70
2024/02/27 03:49:19;;;;;;;8.27;5.60;;;;;;;3.59;100.00;98052.75;6110164;19;20341;-70
2024/02/27 03:51:19;;;;;;;8.20;5.45;;;;;;;3.60;100.00;98050.81;6109821;19;20497;-70
2024/02/27 03:53:19;;;;;;;7.43;5.05;;;;;;;3.59;100.00;98054.69;6111218;19;20007;-70
2024/02/27 03:55:20;;;;;;;7.38;4.97;;;;;;;3.55;100.00;98070.16;6110768;19;20467;-70
2024/02/27 03:57:20;;;;;;;8.25;5.35;;;;;;;3.53;100.00;98066.97;6111227;19;20014;-70
2024/02/27 03:59:21;;;;;;;6.30;4.70;;;;;;;3.53;100.00;98076.00;6110981;19;20094;-70
2024/02/27 04:01:21;;;;;;;8.82;5.45;;;;;;;3.51;100.00;98072.00;6108395;19;20006;-70
2024/02/27 04:03:22;;;;;;;7.53;5.05;;;;;;;3.48;100.00;98069.97;6110478;19;20018;-70
2024/02/27 04:05:22;;;;;;;10.23;5.18;;;;;;;3.53;100.00;98069.72;6110202;19;20569;-70
2024/02/27 04:07:22;;;;;;;9.95;5.30;;;;;;;3.50;100.00;98079.41;6110454;19;20379;-70
2024/02/27 04:09:23;;;;;;;8.63;5.50;;;;;;;3.49;100.00;98087.97;6111133;19;20333;-70
2024/02/27 04:11:23;;;;;;;8.48;5.63;;;;;;;3.45;100.00;98090.56;6109950;19;20015;-70
2024/02/27 04:13:24;;;;;;;9.40;5.65;;;;;;;3.49;100.00;98082.50;6110501;19;20021;-70
2024/02/27 04:15:25;;;;;;;8.18;5.13;;;;;;;3.48;100.00;98083.63;6101908;19;20503;-70
2024/02/27 04:17:25;;;;;;;7.65;5.35;;;;;;;3.49;100.00;98075.09;6110449;19;20006;-70
2024/02/27 04:19:25;;;;;;;6.30;4.53;;;;;;;3.50;100.00;98089.56;6109035;19;20082;-70
2024/02/27 04:21:26;;;;;;;8.05;4.95;;;;;;;3.48;100.00;98081.69;6108919;19;20003;-70
2024/02/27 04:23:26;;;;;;;8.13;4.90;;;;;;;3.45;100.00;98090.56;6110119;19;20002;-70
2024/02/27 04:25:27;;;;;;;9.38;5.53;;;;;;;3.43;100.00;98090.13;6110300;19;20003;-70
2024/02/27 04:27:27;;;;;;;8.43;5.22;;;;;;;3.37;100.00;98078.59;6109647;19;20013;-70
2024/02/27 04:29:27;;;;;;;9.57;5.25;;;;;;;3.37;100.00;98086.00;6109432;19;20006;-70
2024/02/27 04:31:28;;;;;;;7.35;5.15;;;;;;;3.36;100.00;98101.63;6106752;19;20471;-70
2024/02/27 04:33:28;;;;;;;7.30;4.82;;;;;;;3.44;100.00;98094.44;6107606;19;20010;-70
2024/02/27 04:35:29;;;;;;;8.02;5.22;;;;;;;3.40;100.00;98093.53;6106509;19;20023;-70
2024/02/27 04:37:30;;;;;;;7.40;5.00;;;;;;;3.34;100.00;98095.69;6109903;19;20474;-70
2024/02/27 04:39:30;;;;;;;7.68;5.13;;;;;;;3.34;100.00;98097.63;6108227;19;20015;-70
2024/02/27 04:41:30;;;;;;;6.65;4.75;;;;;;;3.29;100.00;98093.16;6108414;19;20324;-70
2024/02/27 04:43:31;;;;;;;6.47;4.75;;;;;;;3.30;100.00;98100.22;6108294;19;20003;-70
2024/02/27 04:45:31;;;;;;;6.10;4.35;;;;;;;3.30;100.00;98097.50;6109297;19;20009;-70
2024/02/27 04:47:32;;;;;;;7.80;4.90;;;;;;;3.30;100.00;98099.44;6108169;19;20007;-70
2024/02/27 04:49:32;;;;;;;6.72;4.88;;;;;;;3.31;100.00;98098.28;6108474;19;20429;-70
2024/02/27 04:51:33;;;;;;;10.05;5.32;;;;;;;3.31;100.00;98095.56;6108574;19;20258;-70
2024/02/27 04:53:33;;;;;;;7.97;5.13;;;;;;;3.30;100.00;98100.22;6108405;19;20010;-70
2024/02/27 04:55:34;;;;;;;5.20;4.13;;;;;;;3.24;100.00;98098.88;6107727;19;20006;-70
2024/02/27 04:57:34;;;;;;;6.50;4.93;;;;;;;3.27;100.00;98097.38;6109349;19;20550;-70
2024/02/27 04:59:35;;;;;;;6.65;4.45;;;;;;;3.23;100.00;98110.16;6108441;19;20003;-70
2024/02/27 05:01:37;;;;;;;9.27;4.88;;;;;;;3.23;100.00;98115.63;6108750;19;19999;-70
2024/02/27 05:03:38;;;;;;;10.83;5.23;;;;;;;3.26;100.00;98117.66;6109263;19;20450;-70
2024/02/27 05:05:38;;;;;;;7.93;4.88;;;;;;;3.24;100.00;98115.28;6109213;19;20315;-70
2024/02/27 05:07:38;;;;;;;10.15;5.18;;;;;;;3.25;100.00;98119.59;6109343;19;20109;-70
2024/02/27 05:09:39;;;;;;;7.72;5.22;;;;;;;3.24;100.00;98128.16;6109175;19;20009;-70
2024/02/27 05:11:39;;;;;;;8.95;5.47;;;;;;;3.24;100.00;98139.88;6107025;19;20016;-70
2024/02/27 05:13:39;;;;;;;6.30;4.97;;;;;;;3.23;100.00;98146.50;6109302;19;21526;-70
2024/02/27 05:15:40;;;;;;;8.82;5.18;;;;;;;3.23;100.00;98153.91;6102490;19;20002;-70
2024/02/27 05:17:40;;;;;;;6.65;4.82;;;;;;;3.17;100.00;98150.56;6102907;19;20003;-70
2024/02/27 05:19:40;;;;;;;8.48;4.68;;;;;;;3.18;100.00;98165.03;6101682;19;20262;-70
2024/02/27 05:21:41;;;;;;;7.00;5.07;;;;;;;3.19;100.00;98163.88;6100580;19;20044;-70
2024/02/27 05:23:41;;;;;;;7.90;5.18;;;;;;;3.22;100.00;98168.69;6102814;19;19998;-70
2024/02/27 05:25:41;;;;;;;8.20;4.82;;;;;;;3.18;100.00;98167.75;6102176;19;20013;-70
2024/02/27 05:27:42;;;;;;;7.88;5.60;;;;;;;3.10;100.00;98161.25;6101707;19;19995;-70
2024/02/27 05:29:43;;;;;;;7.25;4.93;;;;;;;3.13;100.00;98157.03;6100863;19;20348;-70
2024/02/27 05:31:43;;;;;;;6.47;4.97;;;;;;;3.08;100.00;98169.78;6101364;19;20454;-70
2024/02/27 05:33:44;;;;;;;7.10;4.72;;;;;;;3.06;100.00;98163.03;6100558;19;20271;-70
2024/02/27 05:35:44;;;;;;;9.05;5.78;;;;;;;3.05;100.00;98167.72;6100858;19;20432;-70
2024/02/27 05:37:45;;;;;;;8.02;5.25;;;;;;;3.05;100.00;98162.25;6102356;19;20010;-70
2024/02/27 05:39:45;;;;;;;8.82;5.35;;;;;;;3.06;100.00;98163.88;6099552;19;20015;-70
2024/02/27 05:41:46;;;;;;;8.48;5.07;;;;;;;3.05;100.00;98170.44;6100816;19;20499;-70
2024/02/27 05:43:47;;;;;;;7.32;5.13;;;;;;;3.08;100.00;98169.78;6101450;19;20006;-70
2024/02/27 05:45:47;;;;;;;8.30;5.38;;;;;;;3.11;100.00;98168.31;6099433;19;20003;-70
2024/02/27 05:47:47;;;;;;;7.90;5.32;;;;;;;3.07;100.00;98172.88;6100930;19;20009;-70
2024/02/27 05:49:48;;;;;;;9.45;5.28;;;;;;;3.01;100.00;98172.25;6100304;19;20007;-70
2024/02/27 05:51:48;;;;;;;7.50;5.18;;;;;;;3.04;100.00;98168.84;6101815;19;20007;-70
2024/02/27 05:53:48;;;;;;;7.70;5.10;;;;;;;3.04;100.00;98171.59;6101340;19;20003;-70
2024/02/27 05:55:49;;;;;;;6.68;4.55;;;;;;;3.05;100.00;98169.63;6101555;19;20003;-70
2024/02/27 05:57:49;;;;;;;8.90;5.68;;;;;;;2.98;100.00;98172.13;6102094;19;20499;-70
2024/02/27 05:59:49;;;;;;;8.57;5.53;;;;;;;2.99;100.00;98177.28;6100266;19;20003;-70
2024/02/27 06:01:50;;;;;;;8.18;5.10;;;;;;;2.98;100.00;98189.34;6099436;19;20006;-70
2024/02/27 06:03:50;;;;;;;8.88;5.35;;;;;;;3.01;100.00;98198.78;6102006;19;20028;-70
2024/02/27 06:05:51;;;;;;;8.25;5.72;;;;;;;2.98;100.00;98196.72;6100913;19;20006;-70
2024/02/27 06:07:52;;;;;;;8.18;5.53;;;;;;;2.94;100.00;98196.59;6100715;19;19999;-71
2024/02/27 06:09:52;;;;;;;8.90;5.22;;;;;;;2.92;100.00;98198.88;6098279;19;20074;-70
2024/02/27 06:11:52;;;;;;;7.25;5.30;;;;;;;2.91;100.00;98201.94;6100668;19;19995;-70
2024/02/27 06:13:53;;;;;;;8.55;5.50;;;;;;;2.90;100.00;98214.00;6097804;19;20002;-70
2024/02/27 06:15:53;;;;;;;8.82;5.50;;;;;;;2.92;100.00;98201.59;6108118;19;19998;-70
2024/02/27 06:17:53;;;;;;;8.40;5.63;;;;;;;2.94;100.00;98207.53;6107398;19;20006;-70
2024/02/27 06:19:59;;;;;;;9.07;5.60;;;;;;;2.95;100.00;98209.13;6106372;19;20463;-70
2024/02/27 06:22:14;;;;;;;8.10;5.50;;;;;;;2.92;100.00;98209.81;6106744;19;20007;-70
2024/02/27 06:24:14;;;;;;;11.02;5.47;;;;;;;2.95;100.00;98222.78;6004311;19;2005951;-70
2024/02/27 06:26:15;;;;;;;9.02;5.68;;;;;;;3.00;100.00;98230.78;6105357;19;20006;-70
2024/02/27 06:28:15;;;;;;;7.18;5.63;;;;;;;3.00;100.00;98236.25;6105449;19;20003;-70
2024/02/27 06:30:16;;;;;;;8.88;6.07;;;;;;;3.01;100.00;98237.06;6102309;19;20657;-70
2024/02/27 06:32:16;;;;;;;9.93;5.68;;;;;;;2.94;100.00;98232.13;6104875;19;20356;-70
2024/02/27 06:34:17;;;;;;;8.45;5.80;;;;;;;2.91;100.00;98221.06;6104614;19;20462;-70
2024/02/27 06:36:17;;;;;;;10.43;6.32;;;;;;;2.92;100.00;98228.13;6107719;19;20459;-70
2024/02/27 06:38:17;;;;;;;9.70;6.38;;;;;;;2.97;100.00;98230.66;6107000;19;20070;-71
2024/02/27 06:40:18;;;;;;;8.93;5.57;;;;;;;2.94;100.00;98221.19;6105411;19;20325;-70
2024/02/27 06:42:19;;;;;;;9.25;5.22;;;;;;;2.93;100.00;98225.06;6107870;19;20006;-70
2024/02/27 06:44:20;;;;;;;9.75;6.00;;;;;;;2.92;100.00;98223.47;6107475;19;20087;-70
2024/02/27 06:46:20;;;;;;;8.80;5.85;;;;;;;2.92;100.00;98220.72;6106653;19;20011;-70
2024/02/27 06:48:21;;;;;;;9.00;6.28;;;;;;;2.91;100.00;98224.59;6107630;19;20018;-70
2024/02/27 06:50:21;;;;;;;9.55;5.95;;;;;;;2.92;100.00;98234.41;6106028;19;20014;-70
2024/02/27 06:52:22;;;;;;;9.02;5.93;;;;;;;2.91;100.00;98232.00;6106622;19;20037;-70
2024/02/27 06:54:23;;;;;;;10.65;5.72;;;;;;;2.91;100.00;98238.25;6107474;19;20010;-70
2024/02/27 06:56:23;;;;;;;9.18;6.05;;;;;;;2.94;100.00;98239.53;6106894;19;20007;-70
2024/02/27 06:58:24;;;;;;;9.98;5.85;;;;;;;2.94;100.00;98245.00;6106714;19;20111;-70
2024/02/27 07:00:24;;;;;;;7.90;5.65;;;;;;;2.94;100.00;98243.06;6111182;19;20033;-70
2024/02/27 07:02:25;;;;;;;10.52;5.75;;;;;;;2.95;100.00;98243.84;6111689;19;20435;-70
2024/02/27 07:04:25;;;;;;;8.18;5.68;;;;;;;2.98;100.00;98254.94;6112598;19;20014;-70
2024/02/27 07:06:25;;;;;;;10.13;5.90;;;;;;;2.97;100.00;98245.09;6112689;19;20018;-70
2024/02/27 07:08:26;;;;;;;8.35;5.82;;;;;;;2.97;100.00;98250.56;6112557;19;20010;-70
2024/02/27 07:10:26;;;;;;;11.02;5.80;;;;;;;2.99;100.00;98256.53;6112102;19;20011;-70
2024/02/27 07:12:28;;;;;;;10.82;6.40;;;;;;;2.99;100.00;98261.19;6112269;19;20006;-70
2024/02/27 07:14:29;;;;;;;8.75;5.93;;;;;;;2.96;100.00;98261.84;6112161;19;20354;-70
2024/02/27 07:16:29;;;;;;;8.80;5.45;;;;;;;2.97;100.00;98268.91;6112830;19;20017;-70
2024/02/27 07:18:30;;;;;;;8.43;6.05;;;;;;;2.95;100.00;98269.25;6113950;19;20002;-70
2024/02/27 07:20:31;;;;;;;9.25;5.88;;;;;;;3.02;100.00;98280.44;6111736;19;20035;-70
2024/02/27 07:22:32;;;;;;;8.88;5.90;;;;;;;3.01;100.00;98269.84;6112919;19;20006;-70
2024/02/27 07:24:35;;;;;;;10.20;6.28;;;;;;;3.07;100.00;98279.47;6111750;19;20027;-70
2024/02/27 07:26:36;;;;;;;10.13;6.45;;;;;;;3.03;100.00;98278.50;6112277;19;20007;-70
2024/02/27 07:28:36;;;;;;;11.38;6.88;;;;;;;3.02;100.00;98280.44;6112831;19;20033;-70
2024/02/27 07:30:36;;;;;;;9.77;6.38;;;;;;;3.04;100.00;98278.19;6110943;19;20366;-70
2024/02/27 07:32:37;;;;;;;8.75;5.63;;;;;;;3.05;100.00;98281.72;6112411;19;20401;-70
2024/02/27 07:34:37;;;;;;;12.15;7.38;;;;;;;3.09;100.00;98280.72;6112030;19;20517;-70
2024/02/27 07:36:37;;;;;;;11.25;6.55;;;;;;;3.10;100.00;98281.53;6112553;19;20011;-71
2024/02/27 07:38:38;;;;;;;10.00;6.32;;;;;;;3.16;100.00;98279.41;6113134;19;20085;-70
2024/02/27 07:40:38;;;;;;;11.40;6.35;;;;;;;3.17;100.00;98278.25;6111704;19;20074;-70
2024/02/27 07:42:38;;;;;;;11.30;6.30;;;;;;;3.21;100.00;98279.97;6111864;19;20021;-70
2024/02/27 07:44:39;;;;;;;11.68;6.03;;;;;;;3.27;100.00;98272.38;6112132;19;20014;-70
2024/02/27 07:46:39;;;;;;;8.07;5.78;;;;;;;3.30;100.00;98274.44;6112992;19;20006;-70
2024/02/27 07:48:40;;;;;;;9.13;6.10;;;;;;;3.29;100.00;98279.09;6112958;19;20018;-70
2024/02/27 07:50:41;;;;;;;8.55;6.57;;;;;;;3.31;100.00;98273.28;6110671;19;20021;-70
2024/02/27 07:52:41;;;;;;;10.02;6.75;;;;;;;3.40;100.00;98282.25;6112742;19;20017;-70
2024/02/27 07:54:42;;;;;;;11.45;6.28;;;;;;;3.39;100.00;98288.81;6111337;19;20613;-70
2024/02/27 07:56:43;;;;;;;10.07;6.72;;;;;;;3.41;100.00;98285.78;6111099;19;20351;-70
2024/02/27 07:58:43;;;;;;;10.70;6.18;;;;;;;3.42;100.00;98290.09;6112846;19;20018;-70
2024/02/27 08:00:44;;;;;;;9.50;6.70;;;;;;;3.42;100.00;98281.91;6110328;19;20006;-70
2024/02/27 08:02:44;;;;;;;10.68;5.93;;;;;;;3.45;100.00;98283.97;6111694;19;20006;-70
2024/02/27 08:04:45;;;;;;;9.50;7.00;;;;;;;3.48;100.00;98278.63;6111706;19;20031;-70
2024/02/27 08:06:45;;;;;;;10.13;6.75;;;;;;;3.51;100.00;98285.34;6111800;19;20023;-70
2024/02/27 08:08:46;;;;;;;11.25;6.70;;;;;;;3.51;100.00;98280.69;6111187;19;20550;-70
2024/02/27 08:10:46;;;;;;;10.63;6.95;;;;;;;3.56;100.00;98294.16;6109374;19;20018;-70
2024/02/27 08:12:49;;;;;;;12.10;7.43;;;;;;;3.52;100.00;98297.91;6112819;19;20407;-70
2024/02/27 08:14:50;;;;;;;11.30;6.85;;;;;;;3.50;100.00;98298.25;6109668;19;20041;-70
2024/02/27 08:16:50;;;;;;;12.05;7.22;;;;;;;3.54;100.00;98298.34;6112013;19;20011;-70
2024/02/27 08:18:50;;;;;;;12.90;7.80;;;;;;;3.52;100.00;98293.22;6110723;19;20013;-70
2024/02/27 08:20:51;;;;;;;11.88;6.90;;;;;;;3.57;100.00;98300.44;6110637;19;20006;-70
2024/02/27 08:22:51;;;;;;;12.13;7.38;;;;;;;3.55;100.00;98305.41;6111392;19;19999;-70
2024/02/27 08:24:52;;;;;;;13.77;7.20;;;;;;;3.58;100.00;98302.81;6111095;19;20012;-70
2024/02/27 08:26:52;;;;;;;11.95;8.07;;;;;;;3.58;100.00;98304.78;6111636;19;20074;-70
2024/02/27 08:28:52;;;;;;;10.05;7.15;;;;;;;3.58;100.00;98307.50;6111083;19;19999;-70
2024/02/27 08:30:53;;;;;;;13.88;7.22;;;;;;;3.60;100.00;98306.03;6109931;19;20091;-70
2024/02/27 08:32:53;;;;;;;14.32;8.20;;;;;;;3.64;100.00;98306.13;6110946;19;20007;-70
2024/02/27 08:34:53;;;;;;;11.75;7.93;;;;;;;3.71;100.00;98300.91;6111091;19;20070;-70
2024/02/27 08:36:54;;;;;;;11.75;7.78;;;;;;;3.71;100.00;98294.66;6111689;19;21267;-70
2024/02/27 08:38:54;;;;;;;13.90;8.48;;;;;;;3.66;100.00;98301.16;6110295;19;20058;-70
2024/02/27 08:40:54;;;;;;;13.15;8.23;;;;;;;3.68;100.00;98296.13;6109523;19;20019;-70
2024/02/27 08:42:55;;;;;;;13.27;8.10;;;;;;;3.70;100.00;98298.53;6110717;19;19999;-70
2024/02/27 08:44:55;;;;;;;13.20;8.77;;;;;;;3.67;100.00;98292.59;6110319;19;20036;-70
2024/02/27 08:46:59;;;;;;;13.95;7.95;;;;;;;3.73;100.00;98287.72;6111000;19;20249;-70
2024/02/27 08:48:59;;;;;;;14.18;8.73;;;;;;;3.76;100.00;98298.00;6111044;19;20027;-70
2024/02/27 08:50:59;;;;;;;28.20;10.38;;;;;;;3.77;100.00;98307.78;6109362;19;20328;-70
2024/02/27 08:53:00;;;;;;;14.32;8.02;;;;;;;3.75;100.00;98303.81;6110226;19;20514;-70
2024/02/27 08:55:02;;;;;;;17.58;9.95;;;;;;;3.81;100.00;98306.00;6109920;19;20035;-70
2024/02/27 08:57:03;;;;;;;19.30;10.43;;;;;;;3.83;100.00;98303.72;6110537;19;20342;-70
2024/02/27 08:59:04;;;;;;;14.77;9.75;;;;;;;3.83;100.00;98295.50;6111413;19;20247;-70
2024/02/27 09:01:04;;;;;;;15.75;9.27;;;;;;;3.81;100.00;98297.78;6108637;19;20002;-70
2024/02/27 09:03:06;;;;;;;13.52;8.45;;;;;;;3.85;100.00;98298.69;6111075;19;20002;-70
2024/02/27 09:05:06;;;;;;;17.63;10.27;;;;;;;3.89;100.00;98310.59;6110214;19;20082;-70
2024/02/27 09:07:08;;;;;;;15.65;9.10;;;;;;;3.97;100.00;98299.84;6109362;19;20016;-70
2024/02/27 09:09:08;;;;;;;16.40;9.25;;;;;;;3.93;100.00;98306.00;6110227;19;20002;-70
2024/02/27 09:11:09;;;;;;;18.33;9.93;;;;;;;3.94;100.00;98306.81;6109118;19;20488;-70
2024/02/27 09:13:09;;;;;;;17.73;9.52;;;;;;;3.92;100.00;98300.88;6109046;19;20331;-70
2024/02/27 09:15:10;;;;;;;15.75;10.05;;;;;;;3.93;100.00;98299.75;6099769;19;20550;-70
2024/02/27 09:17:10;;;;;;;16.75;10.45;;;;;;;3.91;100.00;98293.81;6110195;19;20026;-70
2024/02/27 09:19:11;;;;;;;16.70;9.80;;;;;;;3.95;100.00;98306.47;6109160;19;20420;-70
2024/02/27 09:21:12;;;;;;;15.80;10.32;;;;;;;3.94;100.00;98306.81;6108341;19;20025;-70
2024/02/27 09:23:12;;;;;;;17.70;10.68;;;;;;;3.95;100.00;98313.88;6108207;19;20002;-70
2024/02/27 09:25:13;;;;;;;17.48;9.82;;;;;;;3.97;100.00;98308.06;6108792;19;20091;-70